Time;durP1;ratioP1;P1;durP2;ratioP2;P2;SDS_P1;SDS_P2;PMS_P1;PMS_P2;Temp;Humidity;BMP_temperature;BMP_pressure;BME280_temperature;BME280_humidity;BME280_pressure;Samples;Min_cycle;Max_cycle;Signal;HPM_P1;HPM_P2
2023/09/01 00:02:16;;;;;;;4.00;1.70;;;;;;;15.06;82.15;97863.25;6114019;28;20239;-46
2023/09/01 00:05:36;;;;;;;1.93;1.43;;;;;;;15.03;80.98;97875.34;6104365;28;20417;-46
2023/09/01 00:08:38;;;;;;;3.17;1.63;;;;;;;14.99;84.07;97863.53;6096981;28;20366;-45
2023/09/01 00:11:41;;;;;;;2.77;1.63;;;;;;;14.98;83.22;97871.84;6104739;28;20236;-48
2023/09/01 00:14:47;;;;;;;1.90;1.47;;;;;;;14.79;82.59;97855.44;6112333;28;20270;-49
2023/09/01 00:17:53;;;;;;;3.50;1.63;;;;;;;14.96;82.04;97880.94;6095574;28;20247;-46
2023/09/01 00:21:03;;;;;;;2.27;1.50;;;;;;;14.92;82.57;97885.22;6102555;28;20716;-46
2023/09/01 00:24:11;;;;;;;2.20;1.40;;;;;;;15.04;80.18;97890.38;6101271;28;20239;-46
2023/09/01 00:27:18;;;;;;;2.57;1.80;;;;;;;15.04;80.65;97885.00;6102444;28;20216;-49
2023/09/01 00:30:23;;;;;;;2.67;1.50;;;;;;;15.06;79.46;97879.38;6098657;28;20219;-49
2023/09/01 00:33:30;;;;;;;1.80;1.50;;;;;;;15.16;77.08;97879.38;6120884;28;20281;-46
2023/09/01 00:36:35;;;;;;;1.90;1.70;;;;;;;15.19;78.60;97876.16;6101590;28;20231;-47
2023/09/01 00:39:41;;;;;;;2.47;1.47;;;;;;;15.21;78.35;97872.13;6096302;28;20234;-47
2023/09/01 00:42:48;;;;;;;1.93;1.43;;;;;;;15.22;74.36;97878.31;6108117;28;20228;-47
2023/09/01 00:45:53;;;;;;;1.77;1.23;;;;;;;15.35;75.97;97875.09;6100412;28;20228;-47
2023/09/01 00:48:58;;;;;;;5.90;1.67;;;;;;;15.34;77.19;97873.50;6099974;28;20240;-47
2023/09/01 00:52:04;;;;;;;1.50;1.40;;;;;;;15.40;76.23;97874.31;6100561;28;20712;-49
2023/09/01 00:55:08;;;;;;;3.30;1.90;;;;;;;15.36;76.87;97871.34;6109353;28;20239;-48
2023/09/01 00:58:15;;;;;;;1.80;1.33;;;;;;;15.42;74.61;97875.66;6089300;28;20242;-47
2023/09/01 01:01:21;;;;;;;1.67;1.30;;;;;;;15.45;75.23;97879.69;6110283;28;20241;-48
2023/09/01 01:04:25;;;;;;;4.00;1.73;;;;;;;15.48;75.40;97879.16;6111472;28;20720;-48
2023/09/01 01:07:43;;;;;;;1.90;1.30;;;;;;;15.28;76.23;97841.56;6108819;28;20231;-48
2023/09/01 01:11:06;;;;;;;2.30;1.47;;;;;;;15.43;76.63;97873.78;6117937;28;20242;-47
2023/09/01 01:14:26;;;;;;;1.70;1.60;;;;;;;15.40;77.03;97880.47;6103339;28;20231;-49
2023/09/01 01:17:34;;;;;;;2.67;1.30;;;;;;;15.37;77.39;97885.56;6109913;28;20240;-48
2023/09/01 01:20:53;;;;;;;1.30;1.20;;;;;;;15.34;77.85;97875.38;6110081;28;20239;-49
2023/09/01 01:23:56;;;;;;;1.97;1.17;;;;;;;15.27;78.42;97877.50;6110562;28;20243;-48
2023/09/01 01:26:59;;;;;;;2.80;1.20;;;;;;;15.26;78.68;97875.91;6110215;28;20289;-48
2023/09/01 01:30:14;;;;;;;2.20;1.30;;;;;;;15.21;79.35;97882.88;6097813;28;20230;-47
2023/09/01 01:33:32;;;;;;;1.87;1.37;;;;;;;15.18;79.50;97878.06;6106151;28;20223;-48
2023/09/01 01:36:57;;;;;;;1.97;1.40;;;;;;;15.16;80.22;97880.19;6105571;28;20601;-46
2023/09/01 01:40:07;;;;;;;2.07;1.30;;;;;;;15.00;80.15;97854.41;6102604;28;20596;-47
2023/09/01 01:43:13;;;;;;;1.40;1.30;;;;;;;15.11;80.38;97874.00;6107063;28;20601;-47
2023/09/01 01:46:17;;;;;;;2.07;1.07;;;;;;;15.09;80.69;97876.97;6108941;28;20250;-47
2023/09/01 01:49:28;;;;;;;1.70;1.33;;;;;;;15.05;81.06;97878.56;6123420;28;20314;-48
2023/09/01 01:52:34;;;;;;;3.63;1.60;;;;;;;15.00;81.78;97880.44;6113189;28;20765;-47
2023/09/01 01:55:38;;;;;;;2.97;1.50;;;;;;;14.98;82.10;97874.53;6096401;28;20239;-48
2023/09/01 01:58:44;;;;;;;2.23;1.70;;;;;;;14.93;82.41;97880.69;6105845;28;20242;-47
2023/09/01 02:01:50;;;;;;;1.73;1.20;;;;;;;14.94;82.39;97882.31;6102791;28;20779;-48
2023/09/01 02:04:57;;;;;;;2.30;1.50;;;;;;;14.95;82.82;97889.28;6104774;28;20239;-46
2023/09/01 02:08:05;;;;;;;2.03;1.37;;;;;;;14.93;82.69;97886.06;6094569;28;20242;-49
2023/09/01 02:11:11;;;;;;;3.00;1.50;;;;;;;14.89;82.81;97891.13;6101325;28;20228;-47
2023/09/01 02:14:19;;;;;;;1.30;1.10;;;;;;;14.90;83.04;97891.94;6117965;28;20235;-48
2023/09/01 02:17:24;;;;;;;1.83;1.50;;;;;;;14.89;83.32;97901.06;6101882;28;20240;-46
2023/09/01 02:20:37;;;;;;;1.27;1.13;;;;;;;14.88;83.53;97899.47;6113007;28;20231;-48
2023/09/01 02:23:42;;;;;;;1.33;1.20;;;;;;;14.85;83.79;97895.41;6101861;28;20640;-47
2023/09/01 02:26:51;;;;;;;1.30;1.20;;;;;;;14.83;84.16;97894.88;6102911;28;20290;-49
2023/09/01 02:29:57;;;;;;;3.00;1.60;;;;;;;14.81;84.49;97894.31;6110625;28;20240;-48
2023/09/01 02:33:06;;;;;;;2.13;1.30;;;;;;;14.77;84.69;97895.13;6103909;28;20211;-47
2023/09/01 02:36:26;;;;;;;1.57;1.33;;;;;;;14.73;84.85;97889.50;6101705;28;20215;-48
2023/09/01 02:39:33;;;;;;;2.70;1.50;;;;;;;14.69;85.03;97899.13;6120304;28;20231;-47
2023/09/01 02:42:39;;;;;;;1.87;1.43;;;;;;;14.66;85.12;97892.41;6098156;28;20294;-49
2023/09/01 02:45:49;;;;;;;2.37;1.60;;;;;;;14.63;85.24;97890.25;6111270;28;20246;-48
2023/09/01 02:49:01;;;;;;;2.17;1.43;;;;;;;14.62;85.53;97895.88;6106291;28;20232;-48
2023/09/01 02:52:09;;;;;;;3.70;1.60;;;;;;;14.56;85.87;97897.72;6110668;28;20314;-47
2023/09/01 02:55:20;;;;;;;2.63;1.50;;;;;;;14.54;85.68;97894.50;6103356;28;20242;-47
2023/09/01 02:58:25;;;;;;;2.10;1.30;;;;;;;14.38;85.89;97868.66;6091941;28;20346;-47
2023/09/01 03:01:28;;;;;;;1.73;1.40;;;;;;;14.50;85.86;97890.72;6092743;28;20327;-47
2023/09/01 03:04:31;;;;;;;2.10;1.30;;;;;;;14.45;85.93;97879.97;6093376;28;20235;-46
2023/09/01 03:07:46;;;;;;;1.53;1.27;;;;;;;14.44;86.02;97886.41;6088425;28;20231;-46
2023/09/01 03:10:59;;;;;;;2.00;1.37;;;;;;;14.43;86.36;97882.06;6086837;28;20224;-47
2023/09/01 03:14:09;;;;;;;2.83;1.40;;;;;;;14.41;86.63;97885.03;6098601;28;20227;-47
2023/09/01 03:17:26;;;;;;;2.17;1.40;;;;;;;14.39;86.84;97875.66;6100336;28;20709;-47
2023/09/01 03:20:41;;;;;;;1.77;1.37;;;;;;;14.33;87.00;97868.63;6103933;28;20247;-46
2023/09/01 03:23:56;;;;;;;2.17;1.57;;;;;;;14.28;87.67;97865.94;6095176;28;20755;-46
2023/09/01 03:27:07;;;;;;;1.60;1.50;;;;;;;14.20;87.92;97872.59;6085704;28;20236;-49
2023/09/01 03:30:23;;;;;;;2.20;1.60;;;;;;;14.13;88.09;97867.47;6106232;28;20231;-45
2023/09/01 03:33:45;;;;;;;2.30;1.50;;;;;;;14.08;88.50;97869.31;6093874;28;20235;-48
2023/09/01 03:36:51;;;;;;;5.00;1.60;;;;;;;14.05;88.50;97873.31;6092276;28;20239;-46
2023/09/01 03:39:56;;;;;;;2.70;1.73;;;;;;;14.04;88.86;97860.19;6109167;28;20239;-46
2023/09/01 03:43:23;;;;;;;2.07;1.43;;;;;;;14.00;89.48;97865.25;6102733;28;20243;-47
2023/09/01 03:46:36;;;;;;;1.40;1.30;;;;;;;13.91;89.68;97869.50;6098305;28;20325;-46
2023/09/01 03:49:40;;;;;;;1.90;1.57;;;;;;;13.87;90.26;97865.72;6098238;28;20235;-47
2023/09/01 03:52:58;;;;;;;1.53;1.27;;;;;;;13.85;90.15;97865.97;6117665;28;20239;-45
2023/09/01 03:56:22;;;;;;;2.60;1.53;;;;;;;13.88;90.63;97867.31;6121797;28;20238;-46
2023/09/01 03:59:25;;;;;;;1.73;1.50;;;;;;;13.85;90.68;97857.94;6095371;28;20269;-49
2023/09/01 04:02:31;;;;;;;2.27;1.83;;;;;;;13.83;91.00;97860.06;6121251;28;20325;-47
2023/09/01 04:05:47;;;;;;;1.73;1.53;;;;;;;13.79;91.04;97860.81;6126965;28;20316;-47
2023/09/01 04:09:21;;;;;;;1.87;1.47;;;;;;;13.71;91.16;97859.44;6179752;28;20238;-47
2023/09/01 04:12:54;;;;;;;2.30;1.33;;;;;;;13.65;91.54;97871.19;6128211;28;20301;-46
2023/09/01 04:16:31;;;;;;;2.67;1.90;;;;;;;13.62;91.61;97872.50;6123878;28;20242;-47
2023/09/01 04:20:10;;;;;;;4.67;1.73;;;;;;;13.60;92.36;97871.97;6107085;28;20260;-46
2023/09/01 04:23:50;;;;;;;4.17;1.70;;;;;;;13.57;92.30;97872.47;6131647;28;20242;-46
2023/09/01 04:27:31;;;;;;;1.93;1.70;;;;;;;13.56;92.83;97865.50;6096959;28;20230;-46
2023/09/01 04:31:18;;;;;;;2.33;1.77;;;;;;;13.56;93.24;97875.41;6121352;28;20242;-47
2023/09/01 04:34:54;;;;;;;1.43;1.30;;;;;;;13.57;93.27;97877.00;6112302;28;20238;-47
2023/09/01 04:38:28;;;;;;;2.13;1.93;;;;;;;13.57;93.20;97872.47;6116745;28;20596;-47
2023/09/01 04:42:03;;;;;;;3.20;1.50;;;;;;;13.58;93.28;97882.09;6184829;28;20231;-47
2023/09/01 04:45:43;;;;;;;1.60;1.43;;;;;;;13.55;93.77;97890.66;6103740;28;20241;-47
2023/09/01 04:49:27;;;;;;;3.23;1.70;;;;;;;13.54;93.69;97885.53;6121842;28;20589;-48
2023/09/01 04:53:14;;;;;;;2.87;1.70;;;;;;;13.55;94.12;97889.84;6123062;28;20290;-47
2023/09/01 04:56:49;;;;;;;1.80;1.60;;;;;;;13.59;94.32;97882.91;6117650;28;20323;-46
2023/09/01 05:00:15;;;;;;;2.27;1.43;;;;;;;12.35;94.59;97701.03;6155863;22;20692;-91
2023/09/01 05:03:19;;;;;;;2.07;1.73;;;;;;;13.29;95.10;97840.66;6137595;28;20214;-91
2023/09/01 05:06:21;;;;;;;2.77;1.70;;;;;;;13.56;95.24;97884.25;6139170;28;20294;-93
2023/09/01 05:09:23;;;;;;;1.77;1.60;;;;;;;11.90;94.09;97626.59;6155601;28;20746;-92
2023/09/01 05:12:26;;;;;;;3.93;1.70;;;;;;;13.63;94.13;97886.69;6162660;28;20279;-92
2023/09/01 05:15:30;;;;;;;2.20;1.47;;;;;;;13.65;94.10;97884.59;6136126;28;20233;-92
2023/09/01 05:18:33;;;;;;;2.07;1.63;;;;;;;12.84;94.19;97758.94;6153316;28;20233;-92
2023/09/01 05:21:35;;;;;;;2.60;1.70;;;;;;;12.98;94.29;97784.19;6152906;28;20225;-91
2023/09/01 05:24:39;;;;;;;2.80;1.93;;;;;;;13.09;93.71;97815.31;6153589;28;20321;-91
2023/09/01 05:27:44;;;;;;;1.80;1.40;;;;;;;12.31;93.77;97673.19;6169927;28;20728;-91
2023/09/01 05:30:47;;;;;;;1.90;1.60;;;;;;;13.01;94.17;97798.94;6136574;28;20928;-92
2023/09/01 05:33:49;;;;;;;2.07;1.37;;;;;;;12.73;94.00;97750.03;6141433;28;20237;-91
2023/09/01 05:36:51;;;;;;;3.30;1.60;;;;;;;13.44;94.40;97843.44;6153252;28;20727;-92
2023/09/01 05:39:55;;;;;;;1.93;1.63;;;;;;;11.86;93.67;97578.25;6152634;28;20237;-91
2023/09/01 05:42:58;;;;;;;1.80;1.70;;;;;;;13.23;94.38;97790.84;6143843;28;20233;-92
2023/09/01 05:46:02;;;;;;;3.73;2.00;;;;;;;12.42;94.72;97659.97;6137147;28;20241;-92
2023/09/01 05:49:04;;;;;;;1.63;1.53;;;;;;;13.24;94.94;97776.41;6149877;28;20233;-92
2023/09/01 05:52:06;;;;;;;2.60;1.90;;;;;;;12.93;95.11;97735.22;6136757;28;20243;-92
2023/09/01 05:55:09;;;;;;;1.83;1.67;;;;;;;12.99;95.48;97724.31;6149198;28;20715;-92
2023/09/01 05:58:11;;;;;;;1.97;1.70;;;;;;;12.85;94.98;97704.41;6142321;28;20234;-92
2023/09/01 06:01:14;;;;;;;1.83;1.50;;;;;;;14.36;94.71;97927.88;6165344;28;20272;-92
2023/09/01 06:04:16;;;;;;;2.13;1.43;;;;;;;13.93;93.83;97846.72;6143392;28;20233;-92
2023/09/01 06:07:18;;;;;;;2.33;1.70;;;;;;;13.81;92.89;97821.22;6157290;28;20233;-93
2023/09/01 06:10:21;;;;;;;2.00;1.63;;;;;;;13.50;92.58;97743.41;6148838;28;20787;-91
2023/09/01 06:13:23;;;;;;;2.77;1.87;;;;;;;14.28;92.80;97855.22;6147045;28;20229;-90
2023/09/01 06:16:26;;;;;;;2.33;1.63;;;;;;;14.74;92.23;97919.78;6164326;28;20287;-91
2023/09/01 06:19:28;;;;;;;2.13;1.93;;;;;;;13.88;91.61;97795.00;6151673;28;20726;-90
2023/09/01 06:22:30;;;;;;;2.23;1.70;;;;;;;14.21;91.23;97844.75;6175863;28;20245;-92
2023/09/01 06:25:32;;;;;;;4.00;1.87;;;;;;;13.54;89.30;97731.09;6143013;28;20233;-91
2023/09/01 06:28:35;;;;;;;2.00;1.80;;;;;;;14.12;89.32;97812.28;6167038;28;20237;-91
2023/09/01 06:31:37;;;;;;;4.90;1.70;;;;;;;15.05;89.29;97932.22;6164032;28;20719;-91
2023/09/01 06:34:40;;;;;;;1.87;1.67;;;;;;;14.69;89.17;97877.66;6173664;28;20230;-90
2023/09/01 06:37:42;;;;;;;2.17;1.90;;;;;;;13.89;89.74;97768.00;6146135;28;20222;-90
2023/09/01 06:40:45;;;;;;;2.60;1.70;;;;;;;14.42;90.39;97849.09;6147991;28;20230;-91
2023/09/01 06:43:47;;;;;;;1.60;1.30;;;;;;;14.12;90.75;97809.59;6154154;28;20234;-91
2023/09/01 06:46:50;;;;;;;2.00;1.43;;;;;;;15.00;91.53;97918.00;6156106;28;20233;-91
2023/09/01 06:49:52;;;;;;;1.63;1.53;;;;;;;14.60;91.85;97865.84;6152835;28;20541;-91
2023/09/01 06:52:54;;;;;;;1.40;1.30;;;;;;;13.75;91.99;97712.50;6168707;28;20244;-90
2023/09/01 06:55:57;;;;;;;1.80;1.63;;;;;;;14.34;91.57;97787.19;6155649;28;20257;-90
2023/09/01 06:58:59;;;;;;;2.43;2.00;;;;;;;15.43;91.66;97946.28;6146592;28;20241;-91
2023/09/01 07:02:02;;;;;;;2.83;1.70;;;;;;;15.02;91.43;97892.50;6249622;28;20217;-92
2023/09/01 07:05:04;;;;;;;3.60;1.70;;;;;;;14.31;90.20;97777.78;6177438;28;20244;-92
2023/09/01 07:08:14;;;;;;;2.73;1.60;;;;;;;15.20;89.04;97901.94;6205415;28;20229;-92
2023/09/01 07:11:19;;;;;;;3.20;2.10;;;;;;;13.97;88.77;97701.59;6208601;28;20232;-93
2023/09/01 07:14:21;;;;;;;2.37;1.73;;;;;;;14.67;89.29;97802.03;6165014;28;20255;-92
2023/09/01 07:17:24;;;;;;;3.67;1.83;;;;;;;14.03;89.54;97695.16;6194462;28;20264;-93
2023/09/01 07:20:26;;;;;;;2.00;1.53;;;;;;;14.98;90.07;97842.34;6182539;28;20241;-94
2023/09/01 07:23:29;;;;;;;2.30;1.63;;;;;;;14.62;89.85;97792.09;6188118;28;20237;-93
2023/09/01 07:26:32;;;;;;;2.63;2.00;;;;;;;15.35;89.01;97896.56;6220122;28;20214;-92
2023/09/01 07:29:35;;;;;;;3.37;2.00;;;;;;;14.36;89.56;97739.47;6185637;28;20221;-93
2023/09/01 07:32:37;;;;;;;1.63;1.53;;;;;;;14.62;89.70;97773.31;6266257;28;20255;-93
2023/09/01 07:35:45;;;;;;;1.80;1.57;;;;;;;15.46;89.95;97908.94;6191249;28;20301;-94
2023/09/01 07:38:47;;;;;;;1.73;1.63;;;;;;;15.54;89.92;97896.06;6174166;28;20256;-94
2023/09/01 07:41:50;;;;;;;1.50;1.40;;;;;;;15.91;89.72;97971.84;6195794;28;20531;-93
2023/09/01 07:44:52;;;;;;;1.83;1.47;;;;;;;15.47;88.81;97907.06;6162901;28;20243;-93
2023/09/01 07:47:54;;;;;;;2.07;1.73;;;;;;;15.85;88.62;97967.53;6181521;28;20323;-93
2023/09/01 07:51:17;;;;;;;1.67;1.40;;;;;;;14.87;88.22;97810.09;6164244;28;20631;-93
2023/09/01 07:54:19;;;;;;;1.60;1.50;;;;;;;14.53;88.58;97752.66;6171206;28;20228;-93
2023/09/01 07:57:21;;;;;;;1.87;1.50;;;;;;;15.57;88.95;97888.28;6167716;28;20286;-93
2023/09/01 08:00:24;;;;;;;1.83;1.57;;;;;;;15.02;88.86;97784.38;6168791;28;20240;-92
2023/09/01 08:03:26;;;;;;;2.70;1.60;;;;;;;14.92;87.89;97777.13;6169821;28;20229;-92
2023/09/01 08:06:29;;;;;;;1.83;1.60;;;;;;;15.44;87.09;97830.53;6145035;28;20229;-92
2023/09/01 08:09:32;;;;;;;1.47;1.37;;;;;;;15.03;87.32;97759.19;6160961;28;20229;-93
2023/09/01 08:12:35;;;;;;;1.93;1.30;;;;;;;16.54;87.72;97984.13;6166976;28;20222;-92
2023/09/01 08:15:40;;;;;;;1.57;1.47;;;;;;;15.92;86.86;97867.88;6160653;28;20225;-93
2023/09/01 08:18:43;;;;;;;2.00;1.60;;;;;;;15.88;82.72;97821.13;6219105;28;20222;-92
2023/09/01 08:21:45;;;;;;;3.27;1.43;;;;;;;15.62;77.60;97759.38;6162345;28;20224;-92
2023/09/01 08:24:47;;;;;;;2.20;1.53;;;;;;;16.22;77.14;97832.84;6162344;28;20229;-92
2023/09/01 08:27:50;;;;;;;2.40;1.40;;;;;;;17.19;75.02;97969.66;6177563;28;20294;-93
2023/09/01 08:30:59;;;;;;;1.80;1.30;;;;;;;16.43;75.31;97830.06;6179429;28;20229;-92
2023/09/01 08:34:02;;;;;;;2.00;1.67;;;;;;;16.65;75.11;97853.91;6147278;28;20229;-92
2023/09/01 08:37:04;;;;;;;2.43;1.63;;;;;;;16.24;75.04;97781.50;6178097;28;20327;-92
2023/09/01 08:40:11;;;;;;;3.07;1.47;;;;;;;16.17;74.60;97762.19;6154117;28;20278;-93
2023/09/01 08:43:14;;;;;;;1.53;1.40;;;;;;;15.50;74.38;97635.34;6195755;28;20594;-92
2023/09/01 08:46:21;;;;;;;1.77;1.40;;;;;;;16.80;75.56;97831.50;6158957;28;20609;-92
2023/09/01 08:49:26;;;;;;;2.07;1.67;;;;;;;16.85;75.77;97812.69;6245240;28;20230;-92
2023/09/01 08:52:30;;;;;;;1.93;1.63;;;;;;;17.31;76.00;97868.88;6162098;28;20278;-92
2023/09/01 08:55:32;;;;;;;2.90;1.50;;;;;;;16.98;71.82;97815.53;6163763;28;20229;-92
2023/09/01 08:58:36;;;;;;;2.73;2.00;;;;;;;17.17;70.69;97814.88;6160799;28;20237;-91
2023/09/01 09:01:39;;;;;;;3.93;1.30;;;;;;;17.49;68.38;97822.44;6261330;28;20275;-92
2023/09/01 09:04:42;;;;;;;2.10;1.60;;;;;;;17.78;68.89;97852.91;6162129;28;20370;-92
2023/09/01 09:07:57;;;;;;;2.53;1.70;;;;;;;18.56;67.80;97945.38;6161681;28;20277;-92
2023/09/01 09:10:59;;;;;;;2.00;1.80;;;;;;;16.97;67.07;97721.63;6161852;28;20733;-92
2023/09/01 09:14:02;;;;;;;2.27;1.97;;;;;;;18.12;67.86;97878.97;6178676;28;20228;-93
2023/09/01 09:17:11;;;;;;;2.17;1.90;;;;;;;18.34;67.12;97910.03;6172503;28;20229;-93
2023/09/01 09:20:18;;;;;;;1.73;1.53;;;;;;;17.88;66.98;97852.00;6160626;28;20615;-92
2023/09/01 09:23:21;;;;;;;2.07;1.70;;;;;;;18.38;68.88;97890.28;6154948;28;20225;-92
2023/09/01 09:26:37;;;;;;;1.80;1.50;;;;;;;18.65;68.64;97905.09;6208451;28;20724;-93
2023/09/01 09:29:41;;;;;;;1.60;1.50;;;;;;;17.89;68.50;97783.53;6153925;28;20244;-91
2023/09/01 09:32:43;;;;;;;1.33;1.23;;;;;;;17.94;69.54;97779.97;6124447;28;20226;-93
2023/09/01 09:35:50;;;;;;;1.37;1.17;;;;;;;17.82;71.49;97756.09;6144810;28;20247;-92
2023/09/01 09:38:52;;;;;;;3.37;1.53;;;;;;;18.70;71.93;97895.06;6170944;28;20361;-92
2023/09/01 09:41:56;;;;;;;2.47;1.53;;;;;;;17.94;70.78;97796.94;6161396;28;20240;-92
2023/09/01 09:44:59;;;;;;;2.80;1.77;;;;;;;18.65;70.39;97913.97;6195403;28;20237;-93
2023/09/01 09:48:05;;;;;;;2.93;1.90;;;;;;;18.90;71.25;97926.38;6168587;28;20317;-92
2023/09/01 09:51:08;;;;;;;2.23;1.60;;;;;;;18.96;71.87;97933.31;6182229;28;20569;-93
2023/09/01 09:54:11;;;;;;;1.53;1.43;;;;;;;17.95;72.30;97782.38;6167763;28;20228;-92
2023/09/01 09:57:19;;;;;;;2.27;1.80;;;;;;;17.99;72.01;97752.97;6166279;28;20221;-92
2023/09/01 10:00:22;;;;;;;1.47;1.30;;;;;;;18.61;69.51;97885.16;6172789;28;20266;-91
2023/09/01 10:03:29;;;;;;;2.47;1.67;;;;;;;18.12;73.37;97786.50;6195241;28;20638;-91
2023/09/01 10:06:35;;;;;;;2.17;1.67;;;;;;;19.36;71.86;97941.16;6150144;28;20225;-92
2023/09/01 10:09:38;;;;;;;2.40;1.40;;;;;;;19.10;70.77;97902.91;6163917;28;20647;-91
2023/09/01 10:12:40;;;;;;;2.77;1.40;;;;;;;18.68;65.10;97818.16;6182014;28;20266;-92
2023/09/01 10:15:45;;;;;;;1.57;1.30;;;;;;;19.18;64.86;97846.34;6151020;28;20237;-92
2023/09/01 10:18:49;;;;;;;1.37;1.07;;;;;;;19.88;63.13;97931.22;6184943;28;20267;-92
2023/09/01 10:21:51;;;;;;;1.43;0.90;;;;;;;19.20;60.46;97779.31;6164481;28;20225;-93
2023/09/01 10:25:09;;;;;;;1.87;1.33;;;;;;;19.20;59.64;97738.00;6166515;28;20300;-92
2023/09/01 10:28:13;;;;;;;1.43;1.07;;;;;;;20.57;60.54;97935.66;6160777;28;20236;-92
2023/09/01 10:31:23;;;;;;;1.73;1.27;;;;;;;19.52;60.45;97792.03;6163620;28;20238;-90
2023/09/01 10:34:28;;;;;;;1.63;1.20;;;;;;;19.58;59.04;97757.63;6163373;28;20324;-91
2023/09/01 10:37:30;;;;;;;1.33;1.23;;;;;;;20.22;58.76;97852.44;6206434;28;20233;-90
2023/09/01 10:40:59;;;;;;;1.50;1.40;;;;;;;20.85;56.91;97931.06;6200111;28;20248;-92
2023/09/01 10:44:03;;;;;;;2.33;1.27;;;;;;;19.45;57.07;97721.34;6159895;28;20363;-91
2023/09/01 10:47:41;;;;;;;0.93;0.90;;;;;;;20.12;57.72;97750.66;6151859;28;20709;-90
2023/09/01 10:51:20;;;;;;;1.00;0.87;;;;;;;19.67;57.31;97660.47;6179027;28;20240;-91
2023/09/01 10:54:22;;;;;;;1.17;1.07;;;;;;;21.31;54.86;97891.34;6174073;28;20229;-91
2023/09/01 10:57:51;;;;;;;2.37;1.20;;;;;;;19.60;55.00;97604.09;6180289;28;20237;-91
2023/09/01 11:01:13;;;;;;;1.67;1.13;;;;;;;20.45;54.46;97712.63;6180843;28;20886;-91
2023/09/01 11:04:15;;;;;;;1.40;1.23;;;;;;;21.81;56.07;97874.94;6139781;28;20234;-91
2023/09/01 11:07:18;;;;;;;2.00;1.30;;;;;;;21.01;55.52;97717.53;6164146;28;20248;-91
2023/09/01 11:10:26;;;;;;;3.37;1.30;;;;;;;22.23;53.69;97891.81;6180876;28;20319;-89
2023/09/01 11:13:28;;;;;;;1.40;1.10;;;;;;;22.31;53.61;97902.69;6163807;28;20229;-92
2023/09/01 11:16:31;;;;;;;1.20;1.00;;;;;;;21.78;55.06;97819.44;6164112;28;20721;-92
2023/09/01 11:19:47;;;;;;;1.60;1.20;;;;;;;21.06;54.00;97681.41;6168331;28;20229;-92
2023/09/01 11:22:50;;;;;;;1.30;0.90;;;;;;;22.49;52.40;97892.72;6138136;28;20252;-90
2023/09/01 11:25:57;;;;;;;1.90;1.10;;;;;;;22.34;51.43;97871.41;6163744;28;20229;-91
2023/09/01 11:29:00;;;;;;;0.83;0.70;;;;;;;22.21;51.82;97848.69;6173419;28;20712;-94
2023/09/01 11:32:02;;;;;;;0.77;0.77;;;;;;;21.95;51.50;97771.78;6162107;28;20229;-91
2023/09/01 11:35:05;;;;;;;1.77;1.10;;;;;;;22.75;53.56;97890.06;6171172;28;20229;-90
2023/09/01 11:38:19;;;;;;;0.80;0.80;;;;;;;21.16;53.31;97677.63;6161379;28;20237;-92
2023/09/01 11:41:26;;;;;;;0.93;0.90;;;;;;;21.43;52.37;97703.78;6151650;28;20233;-93
2023/09/01 11:44:31;;;;;;;0.90;0.80;;;;;;;21.37;53.39;97700.41;6174001;28;20218;-92
2023/09/01 11:47:33;;;;;;;0.73;0.63;;;;;;;22.23;55.72;97838.34;6162468;28;20229;-93
2023/09/01 11:50:39;;;;;;;1.20;0.90;;;;;;;21.00;54.16;97640.13;6167611;28;20381;-92
2023/09/01 11:53:43;;;;;;;1.50;0.80;;;;;;;22.56;55.22;97886.81;6184827;28;20237;-91
2023/09/01 11:56:45;;;;;;;0.80;0.77;;;;;;;22.05;55.40;97810.28;6246222;28;20382;-92
2023/09/01 11:59:48;;;;;;;1.17;1.07;;;;;;;20.61;55.05;97589.41;6161499;28;20316;-92
2023/09/01 12:02:51;;;;;;;0.93;0.80;;;;;;;21.61;56.14;97740.69;6196452;28;20252;-94
2023/09/01 12:05:53;;;;;;;0.90;0.90;;;;;;;21.64;56.70;97729.25;6160213;28;20237;-92
2023/09/01 12:09:13;;;;;;;1.80;0.90;;;;;;;21.88;55.64;97754.06;6143546;28;20236;-94
2023/09/01 12:12:16;;;;;;;0.70;0.70;;;;;;;22.08;58.00;97798.03;6155730;28;20237;-93
2023/09/01 12:15:18;;;;;;;1.30;1.20;;;;;;;21.54;56.45;97708.63;6164867;28;20217;-94
2023/09/01 12:18:28;;;;;;;3.47;1.00;;;;;;;21.62;56.64;97721.44;6167852;28;20584;-92
2023/09/01 12:21:31;;;;;;;1.50;1.40;;;;;;;21.47;55.76;97710.97;6172338;28;20278;-91
2023/09/01 12:24:33;;;;;;;2.27;1.80;;;;;;;22.60;55.88;97885.06;6171450;28;20220;-92
2023/09/01 12:27:37;;;;;;;1.40;1.27;;;;;;;21.48;56.88;97731.56;6155654;28;20266;-92
2023/09/01 12:30:39;;;;;;;1.50;1.38;;;;;;;21.01;58.65;97673.41;6162673;28;20707;-93
2023/09/01 12:33:42;;;;;;;2.63;1.65;;;;;;;20.60;59.51;97658.97;6160503;28;20229;-93
2023/09/01 12:36:44;;;;;;;1.77;1.50;;;;;;;21.39;57.26;97744.28;6187868;28;20232;-93
2023/09/01 12:39:47;;;;;;;1.40;1.30;;;;;;;19.89;57.47;97511.03;6159889;28;20235;-93
2023/09/01 12:42:49;;;;;;;1.97;1.57;;;;;;;21.59;59.46;97770.06;6160086;28;20237;-93
2023/09/01 12:45:52;;;;;;;1.67;1.30;;;;;;;22.26;60.75;97885.75;6170792;28;20247;-92
2023/09/01 12:48:54;;;;;;;2.33;1.60;;;;;;;20.59;61.47;97634.91;6165352;28;20233;-93
2023/09/01 12:51:58;;;;;;;1.40;1.30;;;;;;;20.89;61.35;97668.56;6172530;28;20248;-92
2023/09/01 12:55:00;;;;;;;1.30;1.20;;;;;;;21.12;59.62;97702.63;6187803;28;20245;-91
2023/09/01 12:58:03;;;;;;;1.60;1.43;;;;;;;21.68;58.46;97798.00;6193516;28;20233;-92
2023/09/01 13:01:06;;;;;;;1.20;1.10;;;;;;;21.36;60.04;97734.03;6167681;28;20246;-92
2023/09/01 13:04:08;;;;;;;1.67;1.50;;;;;;;21.06;59.68;97682.19;6246293;28;20238;-93
2023/09/01 13:07:11;;;;;;;2.15;1.30;;;;;;;22.60;56.68;97891.31;6168807;28;20259;-93
2023/09/01 13:10:23;;;;;;;1.42;1.30;;;;;;;22.28;56.21;97810.25;6166783;28;20229;-93
2023/09/01 13:13:25;;;;;;;1.67;1.58;;;;;;;21.27;56.20;97657.28;6159775;28;20245;-93
2023/09/01 13:16:30;;;;;;;2.20;1.30;;;;;;;21.63;54.97;97706.75;6167629;28;20229;-93
2023/09/01 13:19:33;;;;;;;2.72;1.50;;;;;;;21.77;56.35;97747.34;6154364;28;20281;-93
2023/09/01 13:22:36;;;;;;;2.25;1.45;;;;;;;21.61;55.29;97697.31;6185676;28;20243;-92
2023/09/01 13:26:04;;;;;;;3.25;1.23;;;;;;;22.83;55.34;97875.72;6257424;28;20277;-92
2023/09/01 13:29:07;;;;;;;4.00;1.70;;;;;;;22.29;54.87;97782.78;6151314;28;20248;-94
2023/09/01 13:32:13;;;;;;;1.50;1.40;;;;;;;21.84;54.26;97712.41;6179160;28;20221;-93
2023/09/01 13:35:20;;;;;;;2.03;1.38;;;;;;;21.93;56.02;97712.44;6181046;28;20245;-94
2023/09/01 13:38:22;;;;;;;1.40;1.30;;;;;;;21.71;55.96;97675.34;6161458;28;20229;-91
2023/09/01 13:41:25;;;;;;;1.90;1.38;;;;;;;22.52;56.64;97790.84;6184511;28;20240;-88
2023/09/01 13:44:31;;;;;;;1.58;1.48;;;;;;;22.09;57.81;97710.09;6169631;28;20607;-95
2023/09/01 13:47:40;;;;;;;2.88;1.52;;;;;;;22.75;57.73;97822.16;6176638;28;20233;-84
2023/09/01 13:50:44;;;;;;;2.85;1.20;;;;;;;22.73;56.61;97818.97;6148226;28;20233;-85
2023/09/01 13:53:46;;;;;;;1.80;1.33;;;;;;;22.72;57.48;97828.25;6162347;28;20257;-86
2023/09/01 13:56:49;;;;;;;1.80;1.45;;;;;;;22.36;56.58;97794.00;6157264;28;20367;-87
2023/09/01 13:59:52;;;;;;;2.17;1.30;;;;;;;22.44;56.67;97818.75;6159754;28;20242;-87
2023/09/01 14:02:54;;;;;;;3.63;1.27;;;;;;;22.19;57.19;97776.84;6168229;28;20248;-84
2023/09/01 14:06:02;;;;;;;1.23;1.13;;;;;;;22.55;58.74;97852.63;6164210;28;20746;-83
2023/09/01 14:09:08;;;;;;;1.92;1.20;;;;;;;22.40;59.58;97845.72;6145859;28;20315;-92
2023/09/01 14:12:11;;;;;;;1.55;1.20;;;;;;;21.31;60.42;97685.41;6152103;28;20218;-91
2023/09/01 14:15:13;;;;;;;1.23;1.13;;;;;;;21.23;61.07;97708.63;6151858;28;20827;-90
2023/09/01 14:18:17;;;;;;;1.63;1.17;;;;;;;21.09;61.33;97689.72;6137286;28;20218;-91
2023/09/01 14:21:19;;;;;;;1.40;1.20;;;;;;;21.66;61.54;97796.72;6153339;28;20328;-92
2023/09/01 14:24:22;;;;;;;1.60;1.45;;;;;;;20.96;62.32;97670.84;6199077;28;20264;-93
2023/09/01 14:27:25;;;;;;;2.67;1.10;;;;;;;21.62;63.64;97753.97;6157307;28;20577;-93
2023/09/01 14:30:28;;;;;;;1.10;1.00;;;;;;;20.55;64.30;97604.16;6150608;28;20241;-93
2023/09/01 14:33:31;;;;;;;2.45;1.40;;;;;;;20.87;64.80;97690.53;6140689;28;20344;-93
2023/09/01 14:36:48;;;;;;;1.67;1.23;;;;;;;21.44;64.77;97768.53;6176491;28;20233;-93
2023/09/01 14:39:51;;;;;;;2.47;1.20;;;;;;;20.74;64.96;97693.28;6150992;28;20230;-92
2023/09/01 14:42:54;;;;;;;1.30;1.07;;;;;;;20.02;65.16;97597.53;6142754;28;20368;-93
2023/09/01 14:45:56;;;;;;;2.00;1.17;;;;;;;20.81;66.42;97712.63;6156759;28;20237;-92